Time;durP1;ratioP1;P1;durP2;ratioP2;P2;SDS_P1;SDS_P2;PMS_P1;PMS_P2;Temp;Humidity;BMP_temperature;BMP_pressure;BME280_temperature;BME280_humidity;BME280_pressure;Samples;Min_cycle;Max_cycle;Signal;HPM_P1;HPM_P2
2023/07/21 00:01:47;;;;;;;13.63;5.80;;;;;;;;;;5028601;28;20025;-73
2023/07/21 00:04:12;;;;;;;10.68;5.38;;;;;;;;;;5027446;28;20010;-73
2023/07/21 00:06:38;;;;;;;8.32;5.47;;;;;;;;;;5030729;28;20025;-73
2023/07/21 00:09:06;;;;;;;8.77;4.93;;;;;;;;;;5030759;28;20418;-73
2023/07/21 00:11:31;;;;;;;12.63;5.20;;;;;;;;;;5032043;28;20311;-74
2023/07/21 00:13:56;;;;;;;15.93;5.38;;;;;;;;;;5031247;28;20124;-73
2023/07/21 00:16:21;;;;;;;10.48;5.28;;;;;;;;;;5025542;28;20036;-73
2023/07/21 00:18:48;;;;;;;8.25;4.57;;;;;;;;;;5026007;28;20656;-73
2023/07/21 00:21:14;;;;;;;6.63;4.32;;;;;;;;;;5028430;28;20429;-73
2023/07/21 00:23:39;;;;;;;7.28;4.70;;;;;;;;;;5027899;28;20024;-73
2023/07/21 00:26:05;;;;;;;9.80;5.13;;;;;;;;;;5030420;28;20627;-73
2023/07/21 00:28:30;;;;;;;11.00;5.00;;;;;;;;;;5027998;28;20662;-73
2023/07/21 00:30:55;;;;;;;11.63;5.13;;;;;;;;;;5031439;28;20478;-73
2023/07/21 00:33:22;;;;;;;7.20;4.50;;;;;;;;;;5023716;28;20277;-73
2023/07/21 00:35:47;;;;;;;6.90;4.82;;;;;;;;;;5021763;28;20273;-73
2023/07/21 00:38:12;;;;;;;8.20;5.40;;;;;;;;;;5028817;28;20075;-73
2023/07/21 00:40:37;;;;;;;7.43;4.93;;;;;;;;;;5027670;28;20434;-73
2023/07/21 00:43:03;;;;;;;7.57;5.10;;;;;;;;;;5030019;28;20279;-74
2023/07/21 00:45:33;;;;;;;9.00;4.72;;;;;;;;;;5026172;28;20406;-74
2023/07/21 00:48:00;;;;;;;9.20;5.07;;;;;;;;;;5034749;28;20021;-74
2023/07/21 00:50:25;;;;;;;9.75;5.15;;;;;;;;;;5034886;28;20149;-74
2023/07/21 00:52:51;;;;;;;11.27;5.78;;;;;;;;;;5035694;28;20104;-74
2023/07/21 00:55:16;;;;;;;7.90;5.35;;;;;;;;;;5026791;28;20100;-74
2023/07/21 00:57:42;;;;;;;9.05;5.75;;;;;;;;;;5032651;28;20117;-74
2023/07/21 01:00:12;;;;;;;10.65;5.72;;;;;;;;;;5032016;28;20028;-74
2023/07/21 01:02:37;;;;;;;9.32;6.00;;;;;;;;;;5029632;28;20108;-74
2023/07/21 01:05:03;;;;;;;8.98;5.80;;;;;;;;;;5029632;28;20566;-74
2023/07/21 01:07:32;;;;;;;9.98;5.82;;;;;;;;;;5032518;28;20029;-73
2023/07/21 01:09:57;;;;;;;10.75;7.00;;;;;;;;;;5032832;28;20064;-73
2023/07/21 01:12:23;;;;;;;15.48;7.15;;;;;;;;;;5031239;28;20545;-73
2023/07/21 01:14:48;;;;;;;10.13;7.13;;;;;;;;;;5034377;28;20064;-73
2023/07/21 01:17:15;;;;;;;9.95;6.68;;;;;;;;;;5032792;28;20029;-73
2023/07/21 01:19:41;;;;;;;10.65;6.55;;;;;;;;;;5033011;28;20014;-73
2023/07/21 01:22:08;;;;;;;11.05;7.00;;;;;;;;;;5027673;28;20025;-73
2023/07/21 01:24:41;;;;;;;13.98;7.70;;;;;;;;;;5037365;28;20656;-73
2023/07/21 01:27:08;;;;;;;10.77;7.20;;;;;;;;;;5030294;28;20052;-73
2023/07/21 01:29:34;;;;;;;11.10;7.32;;;;;;;;;;5028952;28;20024;-73
2023/07/21 01:32:00;;;;;;;14.93;8.25;;;;;;;;;;5033973;28;20025;-73
2023/07/21 01:34:25;;;;;;;10.52;7.43;;;;;;;;;;5027453;28;20026;-73
2023/07/21 01:36:51;;;;;;;14.95;8.35;;;;;;;;;;5031956;28;20605;-73
2023/07/21 01:39:17;;;;;;;15.95;8.13;;;;;;;;;;5029065;28;20067;-73
2023/07/21 01:41:42;;;;;;;14.38;7.68;;;;;;;;;;5030780;28;20478;-73
2023/07/21 01:44:07;;;;;;;10.53;6.83;;;;;;;;;;5024612;28;20018;-73
2023/07/21 01:46:33;;;;;;;12.25;7.93;;;;;;;;;;5029668;28;20275;-73
2023/07/21 01:48:58;;;;;;;14.40;9.07;;;;;;;;;;5032539;28;20025;-73
2023/07/21 01:51:24;;;;;;;12.95;8.57;;;;;;;;;;5032398;28;20674;-73
2023/07/21 01:53:53;;;;;;;13.18;9.00;;;;;;;;;;5030026;28;20110;-73
2023/07/21 01:56:28;;;;;;;15.43;9.73;;;;;;;;;;5029172;28;20144;-73
2023/07/21 01:58:55;;;;;;;15.43;9.52;;;;;;;;;;5028065;28;20104;-74
2023/07/21 02:01:21;;;;;;;13.15;8.20;;;;;;;;;;5028116;28;20537;-73
2023/07/21 02:03:47;;;;;;;11.95;8.52;;;;;;;;;;5029832;28;20536;-73
2023/07/21 02:06:13;;;;;;;14.60;7.93;;;;;;;;;;5028952;28;20029;-73
2023/07/21 02:08:39;;;;;;;18.00;8.88;;;;;;;;;;5029707;28;20025;-73
2023/07/21 02:11:04;;;;;;;13.35;8.40;;;;;;;;;;5030444;28;20021;-73
2023/07/21 02:13:29;;;;;;;13.52;9.45;;;;;;;;;;5027986;28;20025;-73
2023/07/21 02:15:54;;;;;;;10.20;7.17;;;;;;;;;;5030288;28;20029;-73
2023/07/21 02:18:20;;;;;;;14.20;9.20;;;;;;;;;;5028651;28;20700;-73
2023/07/21 02:20:45;;;;;;;16.58;8.77;;;;;;;;;;5029238;28;20336;-73
2023/07/21 02:23:12;;;;;;;10.23;7.17;;;;;;;;;;5030270;28;20032;-73
2023/07/21 02:25:37;;;;;;;11.52;8.25;;;;;;;;;;5027225;28;20268;-73
2023/07/21 02:28:02;;;;;;;14.00;6.17;;;;;;;;;;5027251;28;20021;-73
2023/07/21 02:30:29;;;;;;;9.80;6.75;;;;;;;;;;5024104;28;20276;-73
2023/07/21 02:32:54;;;;;;;13.02;7.93;;;;;;;;;;5027998;28;20080;-73
2023/07/21 02:35:19;;;;;;;11.87;7.07;;;;;;;;;;5027271;28;20029;-73
2023/07/21 02:37:44;;;;;;;12.40;8.20;;;;;;;;;;5029465;28;20288;-73
2023/07/21 02:40:10;;;;;;;12.85;8.05;;;;;;;;;;5027531;28;20493;-73
2023/07/21 02:42:35;;;;;;;13.48;8.52;;;;;;;;;;5029496;28;20117;-73
2023/07/21 02:45:00;;;;;;;8.13;6.35;;;;;;;;;;5029148;28;20483;-73
2023/07/21 02:47:26;;;;;;;10.73;7.53;;;;;;;;;;5028172;28;20131;-73
2023/07/21 02:49:51;;;;;;;9.68;7.18;;;;;;;;;;5027510;28;20347;-73
2023/07/21 02:52:17;;;;;;;11.65;7.30;;;;;;;;;;5029308;28;20155;-73
2023/07/21 02:54:42;;;;;;;12.20;7.80;;;;;;;;;;5023528;28;20071;-73
2023/07/21 02:57:07;;;;;;;10.32;7.68;;;;;;;;;;5028209;28;20388;-73
2023/07/21 02:59:33;;;;;;;16.55;8.30;;;;;;;;;;5030536;28;20096;-73
2023/07/21 03:01:59;;;;;;;15.73;9.00;;;;;;;;;;5024466;28;20029;-73
2023/07/21 03:04:24;;;;;;;18.30;9.82;;;;;;;;;;5031195;28;20040;-73
2023/07/21 03:06:49;;;;;;;16.33;10.85;;;;;;;;;;5031286;28;20429;-73
2023/07/21 03:09:15;;;;;;;13.02;8.73;;;;;;;;;;5027894;28;20025;-73
2023/07/21 03:11:40;;;;;;;15.10;9.80;;;;;;;;;;5025720;28;20060;-74
2023/07/21 03:14:05;;;;;;;18.60;10.07;;;;;;;;;;5028465;28;20029;-74
2023/07/21 03:16:30;;;;;;;18.03;10.93;;;;;;;;;;5030396;28;20307;-74
2023/07/21 03:18:55;;;;;;;17.48;10.27;;;;;;;;;;5033015;28;20306;-74
2023/07/21 03:21:21;;;;;;;13.07;9.27;;;;;;;;;;5029155;28;20028;-74
2023/07/21 03:23:47;;;;;;;15.82;10.15;;;;;;;;;;5026233;28;20300;-74
2023/07/21 03:26:13;;;;;;;17.25;10.60;;;;;;;;;;5026479;28;20025;-74
2023/07/21 03:28:38;;;;;;;17.73;10.70;;;;;;;;;;5031135;28;20082;-74
2023/07/21 03:31:03;;;;;;;13.75;10.57;;;;;;;;;;5026051;28;20025;-74
2023/07/21 03:33:28;;;;;;;18.92;11.65;;;;;;;;;;5030124;28;20028;-74
2023/07/21 03:36:12;;;;;;;17.88;11.90;;;;;;;;;;5030806;28;20494;-74
2023/07/21 03:38:37;;;;;;;19.63;10.52;;;;;;;;;;5032160;28;20095;-73
2023/07/21 03:41:03;;;;;;;16.50;10.73;;;;;;;;;;5027178;28;20013;-73
2023/07/21 03:43:29;;;;;;;18.15;10.77;;;;;;;;;;5031186;28;20010;-73
2023/07/21 03:45:57;;;;;;;23.48;11.00;;;;;;;;;;5033410;28;20374;-74
2023/07/21 03:48:23;;;;;;;17.48;11.45;;;;;;;;;;5031135;28;20024;-73
2023/07/21 03:50:48;;;;;;;19.98;11.35;;;;;;;;;;5028524;28;20402;-74
2023/07/21 03:53:13;;;;;;;15.87;10.83;;;;;;;;;;5033143;28;20020;-74
2023/07/21 03:55:41;;;;;;;16.67;11.07;;;;;;;;;;5033103;28;20738;-73
2023/07/21 03:58:06;;;;;;;19.52;10.75;;;;;;;;;;5034858;28;20749;-73
2023/07/21 04:00:31;;;;;;;18.47;11.50;;;;;;;;;;5034100;28;20032;-74
2023/07/21 04:02:56;;;;;;;17.50;10.47;;;;;;;;;;5032694;28;20272;-74
2023/07/21 04:05:21;;;;;;;15.10;9.83;;;;;;;;;;5032132;28;20819;-74
2023/07/21 04:07:46;;;;;;;16.10;10.67;;;;;;;;;;5032816;28;20295;-73
2023/07/21 04:10:13;;;;;;;14.77;9.70;;;;;;;;;;5032638;28;20272;-74
2023/07/21 04:12:39;;;;;;;16.80;11.02;;;;;;;;;;5031628;28;20618;-74
2023/07/21 04:15:04;;;;;;;17.47;10.30;;;;;;;;;;5032304;28;20029;-74
2023/07/21 04:17:30;;;;;;;15.73;8.27;;;;;;;;;;5032951;28;20346;-74
2023/07/21 04:19:57;;;;;;;16.25;10.15;;;;;;;;;;5030442;28;20009;-74
2023/07/21 04:22:23;;;;;;;14.00;8.65;;;;;;;;;;5029984;28;20052;-74
2023/07/21 04:24:48;;;;;;;15.43;9.38;;;;;;;;;;5028649;28;20045;-73
2023/07/21 04:27:13;;;;;;;13.93;8.83;;;;;;;;;;5031995;28;20132;-73
2023/07/21 04:29:39;;;;;;;14.90;9.90;;;;;;;;;;5027669;28;20626;-73
2023/07/21 04:32:05;;;;;;;13.45;8.95;;;;;;;;;;5032982;28;20307;-73
2023/07/21 04:34:30;;;;;;;17.10;9.73;;;;;;;;;;5024235;28;20021;-73
2023/07/21 04:36:55;;;;;;;16.85;10.10;;;;;;;;;;5028403;28;20018;-74
2023/07/21 04:39:21;;;;;;;13.00;7.80;;;;;;;;;;5030824;28;20425;-74
2023/07/21 04:41:46;;;;;;;16.45;9.63;;;;;;;;;;5030926;28;20284;-74
2023/07/21 04:44:11;;;;;;;16.20;10.00;;;;;;;;;;5030626;28;20026;-74
2023/07/21 04:46:36;;;;;;;17.20;11.47;;;;;;;;;;5032064;28;20263;-73
2023/07/21 04:49:07;;;;;;;16.90;10.70;;;;;;;;;;5032425;28;20310;-73
2023/07/21 04:51:32;;;;;;;18.23;11.18;;;;;;;;;;5028312;28;20765;-73
2023/07/21 04:53:57;;;;;;;15.80;10.57;;;;;;;;;;5027244;28;20033;-73
2023/07/21 04:56:22;;;;;;;16.70;10.95;;;;;;;;;;5028829;28;20280;-73
2023/07/21 04:58:48;;;;;;;14.87;10.07;;;;;;;;;;5027798;28;20053;-73
2023/07/21 05:01:15;;;;;;;18.90;11.68;;;;;;;;;;5027569;28;20371;-72
2023/07/21 05:03:41;;;;;;;16.02;10.10;;;;;;;;;;5027787;28;20017;-72
2023/07/21 05:06:09;;;;;;;17.00;11.30;;;;;;;;;;5028702;28;20017;-73
2023/07/21 05:08:34;;;;;;;22.98;12.40;;;;;;;;;;5027055;28;20029;-73
2023/07/21 05:10:59;;;;;;;24.33;12.90;;;;;;;;;;5024870;28;20013;-72
2023/07/21 05:13:25;;;;;;;26.65;14.68;;;;;;;;;;5028029;28;20363;-72
2023/07/21 05:15:50;;;;;;;29.43;14.07;;;;;;;;;;5026141;28;20568;-72
2023/07/21 05:18:15;;;;;;;26.60;15.85;;;;;;;;;;5026176;28;20287;-72
2023/07/21 05:20:41;;;;;;;23.13;14.20;;;;;;;;;;5025814;28;20045;-72
2023/07/21 05:23:06;;;;;;;22.02;13.90;;;;;;;;;;5022664;28;20300;-72
2023/07/21 05:25:32;;;;;;;20.30;12.00;;;;;;;;;;5031447;28;20017;-72
2023/07/21 05:27:57;;;;;;;23.80;13.65;;;;;;;;;;5030822;28;20708;-72
2023/07/21 05:30:22;;;;;;;31.27;14.57;;;;;;;;;;5021409;28;20017;-72
2023/07/21 05:32:47;;;;;;;23.77;14.90;;;;;;;;;;5024603;28;20962;-72
2023/07/21 05:35:13;;;;;;;28.70;14.27;;;;;;;;;;5030882;28;20028;-72
2023/07/21 05:37:39;;;;;;;24.17;14.73;;;;;;;;;;5028983;28;20730;-72
2023/07/21 05:40:05;;;;;;;25.60;14.43;;;;;;;;;;5026626;28;20475;-72
2023/07/21 05:42:30;;;;;;;21.15;13.60;;;;;;;;;;5024035;28;20104;-72
2023/07/21 05:44:56;;;;;;;27.90;15.63;;;;;;;;;;5027679;28;20100;-72
2023/07/21 05:47:21;;;;;;;24.07;14.67;;;;;;;;;;5030594;28;20100;-72
2023/07/21 05:49:46;;;;;;;22.70;14.48;;;;;;;;;;5028284;28;20320;-72
2023/07/21 05:52:11;;;;;;;24.35;15.55;;;;;;;;;;5029782;28;20036;-72
2023/07/21 05:54:37;;;;;;;23.85;14.80;;;;;;;;;;5029844;28;20029;-72
2023/07/21 05:57:02;;;;;;;29.75;15.50;;;;;;;;;;5032617;28;20554;-72
2023/07/21 05:59:27;;;;;;;25.90;14.15;;;;;;;;;;5030988;28;20112;-72
2023/07/21 06:01:57;;;;;;;26.33;15.67;;;;;;;;;;5033947;28;20033;-73
2023/07/21 06:04:22;;;;;;;25.73;15.48;;;;;;;;;;5022896;28;20267;-73
2023/07/21 06:06:47;;;;;;;26.15;15.70;;;;;;;;;;5024643;28;20481;-72
2023/07/21 06:09:13;;;;;;;26.37;16.33;;;;;;;;;;5027548;28;20025;-72
2023/07/21 06:11:38;;;;;;;24.60;14.90;;;;;;;;;;5030423;28;20288;-72
2023/07/21 06:14:03;;;;;;;22.23;14.30;;;;;;;;;;5025484;28;20083;-72
2023/07/21 06:16:28;;;;;;;24.52;15.43;;;;;;;;;;5034490;28;20767;-72
2023/07/21 06:18:54;;;;;;;22.13;13.07;;;;;;;;;;5027656;28;20030;-72
2023/07/21 06:21:22;;;;;;;20.37;13.87;;;;;;;;;;5033508;28;20025;-72
2023/07/21 06:23:48;;;;;;;24.30;13.02;;;;;;;;;;5026795;28;20272;-72
2023/07/21 06:26:13;;;;;;;26.27;13.57;;;;;;;;;;5031048;28;20403;-72
2023/07/21 06:28:38;;;;;;;26.02;12.43;;;;;;;;;;5030793;28;20702;-72
2023/07/21 06:31:03;;;;;;;19.43;11.83;;;;;;;;;;5029369;28;20483;-72
2023/07/21 06:33:29;;;;;;;20.97;13.00;;;;;;;;;;5030980;28;20282;-72
2023/07/21 06:35:54;;;;;;;28.73;18.07;;;;;;;;;;5028041;28;20280;-72
2023/07/21 06:38:19;;;;;;;28.08;16.83;;;;;;;;;;5031125;28;20446;-72
2023/07/21 06:40:44;;;;;;;28.13;18.35;;;;;;;;;;5027208;28;20021;-72
2023/07/21 06:43:09;;;;;;;32.80;18.53;;;;;;;;;;5030123;28;20052;-72
2023/07/21 06:45:39;;;;;;;22.90;15.45;;;;;;;;;;5024988;28;20271;-72
2023/07/21 06:48:05;;;;;;;31.45;18.13;;;;;;;;;;5030862;28;20020;-72
2023/07/21 06:50:30;;;;;;;23.73;14.80;;;;;;;;;;5027622;28;20029;-72
2023/07/21 06:52:55;;;;;;;25.52;17.20;;;;;;;;;;5030611;28;20469;-72
2023/07/21 06:55:21;;;;;;;26.70;17.17;;;;;;;;;;5027390;28;20029;-72
2023/07/21 06:57:46;;;;;;;27.73;15.80;;;;;;;;;;5024104;28;20700;-72
2023/07/21 07:00:14;;;;;;;24.83;15.57;;;;;;;;;;5023756;28;20112;-72
2023/07/21 07:02:39;;;;;;;28.20;17.48;;;;;;;;;;5025986;28;20108;-72
2023/07/21 07:05:05;;;;;;;34.97;19.13;;;;;;;;;;5028365;28;20560;-72
2023/07/21 07:07:30;;;;;;;28.65;19.20;;;;;;;;;;5028684;28;20025;-72
2023/07/21 07:09:55;;;;;;;27.40;17.13;;;;;;;;;;5026707;28;20030;-72
2023/07/21 07:12:20;;;;;;;30.63;18.67;;;;;;;;;;5026645;28;20021;-72
2023/07/21 07:14:46;;;;;;;30.80;18.73;;;;;;;;;;5025938;28;20291;-72
2023/07/21 07:17:12;;;;;;;29.42;18.55;;;;;;;;;;5030570;28;20629;-72
2023/07/21 07:19:37;;;;;;;29.52;18.45;;;;;;;;;;5030913;28;20029;-72
2023/07/21 07:22:05;;;;;;;29.57;16.90;;;;;;;;;;5030070;28;20045;-72
2023/07/21 07:24:30;;;;;;;35.63;20.33;;;;;;;;;;5031233;28;20271;-72
2023/07/21 07:26:55;;;;;;;30.10;18.63;;;;;;;;;;5032623;28;20026;-72
2023/07/21 07:29:20;;;;;;;24.65;15.40;;;;;;;;;;5026276;28;20649;-72
2023/07/21 07:31:46;;;;;;;28.00;18.40;;;;;;;;;;5030577;28;20026;-72
2023/07/21 07:34:11;;;;;;;29.67;19.10;;;;;;;;;;5030919;28;20013;-71
2023/07/21 07:36:36;;;;;;;31.83;18.93;;;;;;;;;;5032356;28;20092;-72
2023/07/21 07:39:02;;;;;;;34.47;18.57;;;;;;;;;;5030327;28;20312;-72
2023/07/21 07:41:28;;;;;;;32.95;19.63;;;;;;;;;;5030358;28;20343;-72
2023/07/21 07:43:53;;;;;;;30.73;19.20;;;;;;;;;;5030974;28;20554;-72
2023/07/21 07:46:18;;;;;;;33.30;18.83;;;;;;;;;;5033000;28;20010;-72
2023/07/21 07:48:45;;;;;;;26.75;18.55;;;;;;;;;;5032136;28;20276;-72
2023/07/21 07:51:10;;;;;;;27.35;18.10;;;;;;;;;;5030881;28;20021;-72
2023/07/21 07:53:36;;;;;;;30.63;21.00;;;;;;;;;;5032711;28;20052;-72
2023/07/21 07:56:02;;;;;;;29.38;18.63;;;;;;;;;;5032423;28;20104;-72
2023/07/21 07:58:27;;;;;;;29.67;18.80;;;;;;;;;;5030967;28;20025;-72
2023/07/21 08:00:57;;;;;;;28.73;18.88;;;;;;;;;;5032705;28;20427;-72
2023/07/21 08:03:22;;;;;;;32.53;20.65;;;;;;;;;;5031749;28;20017;-72
2023/07/21 08:05:48;;;;;;;27.40;17.27;;;;;;;;;;5030382;28;21725;-72
2023/07/21 08:08:13;;;;;;;21.02;14.55;;;;;;;;;;5030331;28;20021;-72
2023/07/21 08:10:39;;;;;;;27.00;16.60;;;;;;;;;;5032742;28;20072;-72
2023/07/21 08:13:05;;;;;;;16.38;11.68;;;;;;;;;;5029709;28;20009;-73
2023/07/21 08:15:30;;;;;;;20.27;14.45;;;;;;;;;;5026158;28;20033;-72
2023/07/21 08:17:55;;;;;;;25.10;13.52;;;;;;;;;;5030786;28;20080;-72
2023/07/21 08:20:21;;;;;;;23.45;15.40;;;;;;;;;;5029773;28;20025;-72
2023/07/21 08:22:46;;;;;;;21.48;15.25;;;;;;;;;;5031021;28;20045;-72
2023/07/21 08:25:11;;;;;;;17.02;13.18;;;;;;;;;;5031569;28;20017;-72
2023/07/21 08:27:37;;;;;;;23.42;14.23;;;;;;;;;;5031931;28;20038;-72
2023/07/21 08:30:02;;;;;;;30.43;18.50;;;;;;;;;;5027238;28;20022;-72
2023/07/21 08:32:27;;;;;;;24.50;17.73;;;;;;;;;;5026033;28;20637;-68
2023/07/21 08:34:55;;;;;;;28.92;17.65;;;;;;;;;;5025595;28;20348;-72
2023/07/21 08:37:20;;;;;;;22.30;15.57;;;;;;;;;;5027350;28;20025;-72
2023/07/21 08:39:45;;;;;;;21.57;14.43;;;;;;;;;;5026745;28;20021;-72
2023/07/21 08:42:12;;;;;;;24.67;15.50;;;;;;;;;;5025945;28;20641;-72
2023/07/21 08:44:38;;;;;;;27.27;16.80;;;;;;;;;;5030385;28;20040;-72
2023/07/21 08:47:03;;;;;;;18.70;12.70;;;;;;;;;;5024375;28;20021;-72
2023/07/21 08:49:28;;;;;;;16.73;11.32;;;;;;;;;;5029812;28;20028;-72
2023/07/21 08:51:53;;;;;;;15.63;10.90;;;;;;;;;;5029731;28;20033;-72
2023/07/21 08:54:19;;;;;;;12.57;10.30;;;;;;;;;;5022592;28;20025;-72
2023/07/21 08:56:44;;;;;;;16.35;11.90;;;;;;;;;;5033253;28;20048;-72
2023/07/21 08:59:09;;;;;;;16.17;12.00;;;;;;;;;;5030288;28;20028;-72
2023/07/21 09:01:34;;;;;;;17.70;10.53;;;;;;;;;;5024047;28;20797;-72
2023/07/21 09:04:00;;;;;;;15.30;11.17;;;;;;;;;;5034270;28;20287;-72
2023/07/21 09:06:25;;;;;;;17.50;11.60;;;;;;;;;;5026409;28;20030;-72
2023/07/21 09:08:52;;;;;;;17.08;11.88;;;;;;;;;;5025236;28;20024;-72
2023/07/21 09:11:17;;;;;;;16.67;12.45;;;;;;;;;;5028452;28;20041;-72
2023/07/21 09:13:51;;;;;;;16.40;11.50;;;;;;;;;;5028520;28;20028;-72
2023/07/21 09:16:19;;;;;;;15.90;11.52;;;;;;;;;;5031304;28;20553;-72
2023/07/21 09:18:46;;;;;;;11.48;8.95;;;;;;;;;;5029177;28;20026;-72
2023/07/21 09:21:21;;;;;;;15.18;10.57;;;;;;;;;;5026284;28;20020;-72
2023/07/21 09:23:47;;;;;;;10.65;8.02;;;;;;;;;;5028869;28;20024;-72
2023/07/21 09:26:15;;;;;;;10.27;7.70;;;;;;;;;;5030183;28;20021;-72
2023/07/21 09:28:40;;;;;;;14.35;8.80;;;;;;;;;;5034761;28;20029;-72
2023/07/21 09:31:06;;;;;;;10.63;8.20;;;;;;;;;;5029862;28;20509;-72
2023/07/21 09:33:36;;;;;;;9.15;6.22;;;;;;;;;;5031244;28;20021;-72
2023/07/21 09:36:06;;;;;;;11.07;6.88;;;;;;;;;;5026603;28;20060;-72
2023/07/21 09:38:32;;;;;;;11.90;7.90;;;;;;;;;;5023175;28;20382;-71
2023/07/21 09:41:05;;;;;;;16.85;8.82;;;;;;;;;;5026969;28;20406;-71
2023/07/21 09:43:30;;;;;;;12.02;7.72;;;;;;;;;;5030438;28;20053;-72
2023/07/21 09:46:00;;;;;;;14.68;8.07;;;;;;;;;;5028326;28;21979;-71
2023/07/21 09:48:26;;;;;;;10.30;7.38;;;;;;;;;;5026322;28;20033;-72
2023/07/21 09:50:51;;;;;;;13.48;7.45;;;;;;;;;;5030052;28;20029;-72
2023/07/21 09:53:20;;;;;;;14.13;8.95;;;;;;;;;;5026069;28;20049;-72
2023/07/21 09:55:47;;;;;;;13.25;7.00;;;;;;;;;;5027826;28;20723;-72
2023/07/21 09:58:14;;;;;;;12.82;7.03;;;;;;;;;;5024099;28;20028;-72
2023/07/21 10:00:39;;;;;;;11.40;6.70;;;;;;;;;;5033210;28;20456;-72
2023/07/21 10:03:07;;;;;;;16.80;5.90;;;;;;;;;;5026128;28;20038;-72
2023/07/21 10:05:32;;;;;;;12.30;6.50;;;;;;;;;;5034335;28;20024;-72
2023/07/21 10:07:58;;;;;;;12.35;6.70;;;;;;;;;;5024012;28;20996;-72
2023/07/21 10:10:23;;;;;;;15.23;6.20;;;;;;;;;;5027259;28;20018;-72
2023/07/21 10:12:50;;;;;;;10.38;5.88;;;;;;;;;;5028342;28;20482;-72
2023/07/21 10:15:17;;;;;;;8.45;4.57;;;;;;;;;;5029746;28;20086;-72
2023/07/21 10:18:11;;;;;;;10.23;5.60;;;;;;;;;;5024903;28;20064;-72
2023/07/21 10:20:38;;;;;;;9.02;5.93;;;;;;;;;;5010607;28;20083;-72
2023/07/21 10:23:03;;;;;;;11.80;6.72;;;;;;;;;;5024045;28;20352;-72
2023/07/21 10:25:28;;;;;;;12.27;6.07;;;;;;;;;;5027492;28;20021;-72
2023/07/21 10:28:03;;;;;;;10.37;5.40;;;;;;;;;;5029061;28;20513;-72
2023/07/21 10:30:28;;;;;;;9.00;5.72;;;;;;;;;;5024244;28;20288;-72
2023/07/21 10:32:54;;;;;;;9.95;5.75;;;;;;;;;;5029143;28;20072;-72
2023/07/21 10:35:37;;;;;;;14.57;8.03;;;;;;;;;;5028215;28;20435;-72
2023/07/21 10:38:14;;;;;;;13.50;8.38;;;;;;;;;;5026169;28;20037;-72
2023/07/21 10:40:46;;;;;;;9.68;5.38;;;;;;;;;;5026930;28;20022;-72
2023/07/21 10:43:11;;;;;;;9.57;5.25;;;;;;;;;;5025051;28;20010;-72
2023/07/21 10:45:37;;;;;;;12.20;7.13;;;;;;;;;;5024916;28;20475;-72
2023/07/21 10:48:11;;;;;;;14.15;6.90;;;;;;;;;;5029117;28;20091;-72
2023/07/21 10:50:36;;;;;;;11.63;6.30;;;;;;;;;;5023741;28;20025;-72
2023/07/21 10:53:01;;;;;;;9.48;6.30;;;;;;;;;;5030025;28;20044;-72
2023/07/21 10:55:26;;;;;;;8.38;5.28;;;;;;;;;;5027969;28;20068;-72
2023/07/21 10:57:52;;;;;;;7.70;4.77;;;;;;;;;;5028658;28;20049;-72
2023/07/21 11:00:18;;;;;;;8.30;5.32;;;;;;;;;;5026682;28;20017;-72
2023/07/21 11:02:43;;;;;;;9.18;5.22;;;;;;;;;;5028352;28;20036;-70
2023/07/21 11:05:10;;;;;;;10.30;4.20;;;;;;;;;;5027895;28;20044;-72
2023/07/21 11:07:35;;;;;;;8.48;3.53;;;;;;;;;;5029126;28;20017;-73
2023/07/21 11:10:01;;;;;;;10.23;5.07;;;;;;;;;;5023968;28;20036;-72
2023/07/21 11:12:26;;;;;;;4.50;3.27;;;;;;;;;;5023608;28;20136;-72
2023/07/21 11:14:54;;;;;;;8.45;3.83;;;;;;;;;;5030606;28;20276;-73
2023/07/21 11:17:20;;;;;;;8.63;3.67;;;;;;;;;;5027464;28;20018;-73
2023/07/21 11:19:46;;;;;;;6.95;3.58;;;;;;;;;;5031249;28;20021;-73
2023/07/21 11:22:12;;;;;;;6.45;3.50;;;;;;;;;;5025410;28;20067;-73
2023/07/21 11:24:37;;;;;;;8.13;3.67;;;;;;;;;;5033483;28;20014;-73
2023/07/21 11:27:05;;;;;;;4.60;3.87;;;;;;;;;;5018836;28;20022;-72
2023/07/21 11:29:30;;;;;;;10.05;4.55;;;;;;;;;;5021232;28;21531;-72
2023/07/21 11:31:55;;;;;;;5.88;4.22;;;;;;;;;;5024167;28;20109;-72
2023/07/21 11:34:22;;;;;;;8.30;3.47;;;;;;;;;;5026683;28;20025;-73
2023/07/21 11:36:48;;;;;;;4.32;3.33;;;;;;;;;;5029099;28;20280;-73
2023/07/21 11:39:17;;;;;;;9.50;3.78;;;;;;;;;;5028300;28;20025;-73
2023/07/21 11:41:50;;;;;;;5.35;3.38;;;;;;;;;;5029146;28;20051;-73
2023/07/21 11:44:19;;;;;;;7.68;3.75;;;;;;;;;;5024535;28;20017;-73
2023/07/21 11:46:54;;;;;;;10.43;3.17;;;;;;;;;;5027229;28;20736;-73
2023/07/21 11:49:20;;;;;;;7.65;3.50;;;;;;;;;;5027671;28;20057;-73
2023/07/21 11:51:46;;;;;;;6.00;3.47;;;;;;;;;;5027740;28;20057;-72
2023/07/21 11:54:21;;;;;;;7.72;3.17;;;;;;;;;;5028294;28;20537;-73
2023/07/21 11:56:46;;;;;;;4.90;3.03;;;;;;;;;;5027019;28;20100;-72
2023/07/21 11:59:12;;;;;;;13.45;2.88;;;;;;;;;;5030091;28;20096;-73
2023/07/21 12:01:38;;;;;;;5.43;2.40;;;;;;;;;;5027438;28;20061;-73
2023/07/21 12:04:03;;;;;;;5.47;2.63;;;;;;;;;;5035049;28;20303;-72
2023/07/21 12:06:29;;;;;;;4.43;2.57;;;;;;;;;;5037740;28;20045;-73
2023/07/21 12:08:54;;;;;;;4.50;2.40;;;;;;;;;;5027745;28;20021;-73
2023/07/21 12:11:19;;;;;;;5.73;2.37;;;;;;;;;;5034408;28;20450;-73
2023/07/21 12:13:45;;;;;;;4.80;2.40;;;;;;;;;;5030910;28;20292;-73
2023/07/21 12:16:11;;;;;;;6.45;1.98;;;;;;;;;;5033720;28;20375;-73
2023/07/21 12:18:38;;;;;;;6.07;2.03;;;;;;;;;;5034786;28;20100;-71
2023/07/21 12:21:03;;;;;;;3.00;1.77;;;;;;;;;;5032143;28;20013;-72
2023/07/21 12:23:28;;;;;;;5.90;2.88;;;;;;;;;;5029017;28;20546;-73
2023/07/21 12:25:53;;;;;;;3.80;2.80;;;;;;;;;;5026408;28;20580;-72
2023/07/21 12:28:20;;;;;;;2.70;2.27;;;;;;;;;;5031787;28;20029;-72
2023/07/21 12:30:45;;;;;;;8.07;2.95;;;;;;;;;;5026906;28;20112;-72
2023/07/21 12:33:10;;;;;;;6.57;2.63;;;;;;;;;;5032982;28;20122;-73
2023/07/21 12:35:36;;;;;;;3.10;2.17;;;;;;;;;;5030520;28;20045;-73
2023/07/21 12:38:01;;;;;;;5.20;2.00;;;;;;;;;;5033517;28;20381;-73
2023/07/21 12:40:26;;;;;;;4.90;2.37;;;;;;;;;;5029610;28;20272;-72
2023/07/21 12:42:51;;;;;;;5.00;1.90;;;;;;;;;;5028849;28;20276;-72
2023/07/21 12:45:17;;;;;;;2.97;1.70;;;;;;;;;;5030666;28;20080;-72
2023/07/21 12:47:42;;;;;;;5.70;1.87;;;;;;;;;;5033787;28;20037;-72
2023/07/21 12:50:07;;;;;;;5.50;1.97;;;;;;;;;;5029620;28;20287;-72
2023/07/21 12:52:32;;;;;;;6.75;1.50;;;;;;;;;;5024830;28;20532;-73
2023/07/21 12:54:57;;;;;;;4.75;1.30;;;;;;;;;;5032163;28;20025;-73
2023/07/21 12:57:23;;;;;;;4.47;1.67;;;;;;;;;;5026766;28;20025;-73
2023/07/21 12:59:48;;;;;;;2.90;1.70;;;;;;;;;;5026896;28;20490;-73
2023/07/21 13:02:13;;;;;;;3.05;1.90;;;;;;;;;;5031835;28;20017;-73
2023/07/21 13:04:38;;;;;;;4.00;1.63;;;;;;;;;;5028790;28;20021;-73
2023/07/21 13:07:09;;;;;;;3.70;1.50;;;;;;;;;;5026163;28;20045;-73
2023/07/21 13:09:34;;;;;;;3.38;1.88;;;;;;;;;;5031722;28;20025;-73
2023/07/21 13:11:59;;;;;;;3.50;1.88;;;;;;;;;;5029321;28;20083;-73
2023/07/21 13:14:25;;;;;;;2.57;1.50;;;;;;;;;;5034101;28;20033;-73
2023/07/21 13:16:50;;;;;;;5.00;1.63;;;;;;;;;;5028099;28;20061;-74
2023/07/21 13:19:15;;;;;;;3.85;1.58;;;;;;;;;;5029774;28;20014;-73
2023/07/21 13:21:40;;;;;;;3.83;1.27;;;;;;;;;;5029914;28;20427;-73
2023/07/21 13:24:06;;;;;;;2.73;1.10;;;;;;;;;;5030473;28;20022;-73
2023/07/21 13:26:33;;;;;;;2.95;1.45;;;;;;;;;;5027841;28;20287;-73
2023/07/21 13:28:58;;;;;;;6.88;1.70;;;;;;;;;;5027453;28;20534;-73
2023/07/21 13:31:25;;;;;;;6.03;1.70;;;;;;;;;;5031699;28;20025;-74
2023/07/21 13:33:51;;;;;;;4.72;1.30;;;;;;;;;;5028181;28;20715;-73
2023/07/21 13:36:16;;;;;;;4.72;1.50;;;;;;;;;;5027993;28;20052;-73
2023/07/21 13:38:41;;;;;;;2.85;1.40;;;;;;;;;;5028720;28;20026;-73
2023/07/21 13:41:09;;;;;;;2.17;1.57;;;;;;;;;;5030004;28;20093;-73
2023/07/21 13:43:34;;;;;;;9.50;2.70;;;;;;;;;;5028756;28;20387;-73
2023/07/21 13:46:00;;;;;;;7.47;3.40;;;;;;;;;;5031462;28;20100;-73
2023/07/21 13:48:25;;;;;;;10.98;4.45;;;;;;;;;;5023301;28;20033;-73
2023/07/21 13:50:50;;;;;;;15.60;4.20;;;;;;;;;;5025402;28;20325;-73
2023/07/21 13:53:16;;;;;;;7.50;3.80;;;;;;;;;;5024456;28;20018;-73
2023/07/21 13:55:41;;;;;;;11.83;4.53;;;;;;;;;;5025163;28;20349;-73
2023/07/21 13:58:06;;;;;;;11.03;4.13;;;;;;;;;;5028696;28;20071;-73
2023/07/21 14:00:32;;;;;;;5.07;4.05;;;;;;;;;;5027905;28;20268;-73
2023/07/21 14:02:57;;;;;;;10.45;3.40;;;;;;;;;;5027662;28;20018;-73
2023/07/21 14:05:22;;;;;;;6.17;3.47;;;;;;;;;;5024830;28;20675;-73
2023/07/21 14:07:48;;;;;;;12.20;3.43;;;;;;;;;;5027397;28;20036;-74
2023/07/21 14:10:13;;;;;;;3.88;2.80;;;;;;;;;;5029543;28;20282;-74
2023/07/21 14:12:39;;;;;;;5.75;2.58;;;;;;;;;;5026908;28;20037;-73
2023/07/21 14:15:04;;;;;;;4.20;2.57;;;;;;;;;;5024713;28;20033;-73
2023/07/21 14:17:30;;;;;;;5.72;2.13;;;;;;;;;;5023689;28;20321;-74
2023/07/21 14:19:55;;;;;;;3.03;1.93;;;;;;;;;;5027264;28;20021;-73
2023/07/21 14:22:20;;;;;;;5.03;1.67;;;;;;;;;;5024418;28;20478;-73